createdAt,value
2023-02-05T00:01:03.301Z,94.25
2023-02-05T00:03:30.924Z,94.28
2023-02-05T00:05:58.553Z,93.20
2023-02-05T00:08:25.831Z,92.50
2023-02-05T00:10:53.890Z,92.33
2023-02-05T00:13:21.601Z,93.03
2023-02-05T00:15:49.262Z,93.98
2023-02-05T00:18:17.908Z,93.87
2023-02-05T00:20:45.288Z,93.62
2023-02-05T00:23:12.630Z,93.18
2023-02-05T00:25:40.299Z,93.65
2023-02-05T00:28:07.200Z,94.50
2023-02-05T00:30:34.577Z,94.69
2023-02-05T00:33:01.858Z,94.53
2023-02-05T00:35:31.022Z,95.12
2023-02-05T00:37:58.499Z,95.78
2023-02-05T00:40:25.714Z,95.21
2023-02-05T00:42:53.151Z,94.53
2023-02-05T00:45:20.380Z,94.96
2023-02-05T00:47:47.527Z,95.55
2023-02-05T00:50:14.968Z,95.76
2023-02-05T00:52:43.685Z,96.04
2023-02-05T00:55:10.795Z,96.01
2023-02-05T00:57:38.399Z,95.85
2023-02-05T01:00:09.225Z,95.17
2023-02-05T01:02:36.553Z,95.17
2023-02-05T01:05:04.592Z,95.12
2023-02-05T01:07:31.841Z,95.03
2023-02-05T01:10:00.478Z,94.32
2023-02-05T01:12:27.796Z,93.92
2023-02-05T01:14:54.983Z,93.93
2023-02-05T01:17:22.332Z,93.60
2023-02-05T01:19:49.588Z,92.76
2023-02-05T01:22:17.082Z,92.44
2023-02-05T01:24:44.219Z,93.33
2023-02-05T01:27:13.407Z,94.08
2023-02-05T01:29:40.523Z,94.15
2023-02-05T01:32:07.876Z,94.00
2023-02-05T01:34:36.051Z,94.41
2023-02-05T01:37:03.425Z,94.53
2023-02-05T01:39:30.648Z,94.48
2023-02-05T01:41:58.181Z,94.03
2023-02-05T01:44:27.263Z,94.07
2023-02-05T01:46:56.213Z,93.49
2023-02-05T01:49:27.421Z,93.34
2023-02-05T01:51:56.899Z,93.89
2023-02-05T01:54:28.775Z,93.64
2023-02-05T01:57:01.536Z,93.86
2023-02-05T01:59:36.461Z,94.34
2023-02-05T02:02:04.404Z,94.54
2023-02-05T02:04:38.577Z,94.88
2023-02-05T02:07:09.191Z,94.75
2023-02-05T02:09:38.851Z,94.11
2023-02-05T02:12:07.332Z,93.33
2023-02-05T02:14:38.979Z,93.10
2023-02-05T02:17:07.672Z,92.67
2023-02-05T02:19:44.596Z,92.83
2023-02-05T02:22:42.061Z,92.01
2023-02-05T02:25:33.382Z,91.72
2023-02-05T02:28:09.754Z,92.14
2023-02-05T02:30:41.786Z,92.37
2023-02-05T02:33:17.907Z,92.31
2023-02-05T02:35:49.465Z,92.88
2023-02-05T02:38:26.172Z,93.21
2023-02-05T02:40:55.769Z,93.80
2023-02-05T02:43:30.731Z,93.66
2023-02-05T02:46:04.237Z,92.97
2023-02-05T02:48:35.359Z,92.29
2023-02-05T02:51:03.646Z,91.69
2023-02-05T02:53:37.288Z,91.80
2023-02-05T02:56:06.774Z,92.18
2023-02-05T02:58:40.364Z,92.24
2023-02-05T03:01:10.615Z,92.09
2023-02-05T03:03:42.702Z,92.10
2023-02-05T03:06:12.289Z,92.06
2023-02-05T03:08:45.921Z,92.06
2023-02-05T03:11:14.746Z,92.04
2023-02-05T03:13:45.885Z,92.11
2023-02-05T03:16:15.976Z,92.36
2023-02-05T03:18:43.518Z,92.20
2023-02-05T03:21:16.272Z,91.93
2023-02-05T03:23:43.824Z,91.75
2023-02-05T03:26:24.882Z,91.55
2023-02-05T03:28:54.578Z,91.15
2023-02-05T03:31:29.024Z,91.02
2023-02-05T03:34:10.329Z,90.82
2023-02-05T03:36:48.533Z,90.35
2023-02-05T03:39:28.914Z,90.00
2023-02-05T03:42:12.005Z,89.49
2023-02-05T03:44:58.060Z,89.45
2023-02-05T03:47:39.039Z,89.64
2023-02-05T03:50:19.346Z,89.90
2023-02-05T03:52:51.889Z,90.87
2023-02-05T03:55:22.892Z,91.42
2023-02-05T03:57:57.291Z,91.51
2023-02-05T04:00:27.454Z,91.68
2023-02-05T04:02:55.020Z,91.70
2023-02-05T04:05:22.217Z,91.68
2023-02-05T04:07:49.624Z,91.80
2023-02-05T04:10:17.191Z,91.74
2023-02-05T04:12:45.128Z,90.95
2023-02-05T04:15:12.794Z,89.96
2023-02-05T04:17:41.521Z,89.61
2023-02-05T04:20:10.200Z,89.51
2023-02-05T04:22:37.659Z,89.38
2023-02-05T04:25:05.740Z,89.34
2023-02-05T04:27:34.358Z,88.97
2023-02-05T04:30:01.766Z,88.84
2023-02-05T04:32:29.005Z,88.79
2023-02-05T04:34:57.792Z,88.55
2023-02-05T04:37:25.279Z,88.77
2023-02-05T04:39:52.492Z,89.21
2023-02-05T04:42:19.895Z,89.07
2023-02-05T04:44:47.418Z,89.34
2023-02-05T04:47:14.541Z,89.36
2023-02-05T04:49:41.872Z,89.37
2023-02-05T04:52:10.589Z,88.86
2023-02-05T04:54:38.403Z,88.29
2023-02-05T04:57:05.810Z,88.61
2023-02-05T04:59:33.189Z,89.21
2023-02-05T05:02:00.449Z,89.56
2023-02-05T05:04:27.990Z,89.46
2023-02-05T05:06:55.135Z,89.33
2023-02-05T05:09:23.907Z,89.37
2023-02-05T05:11:51.607Z,89.14
2023-02-05T05:14:18.811Z,88.35
2023-02-05T05:16:45.944Z,88.01
2023-02-05T05:19:13.347Z,87.87
2023-02-05T05:21:40.766Z,87.55
2023-02-05T05:24:08.442Z,87.70
2023-02-05T05:26:38.281Z,87.29
2023-02-05T05:29:05.514Z,87.68
2023-02-05T05:31:32.909Z,87.81
2023-02-05T05:34:00.234Z,88.46
2023-02-05T05:36:27.373Z,88.71
2023-02-05T05:38:54.618Z,88.53
2023-02-05T05:41:24.013Z,87.56
2023-02-05T05:43:54.461Z,87.22
2023-02-05T05:46:24.947Z,87.42
2023-02-05T05:48:53.326Z,87.36
2023-02-05T05:51:21.847Z,87.39
2023-02-05T05:53:49.491Z,87.52
2023-02-05T05:56:17.565Z,87.33
2023-02-05T05:58:45.247Z,87.18
2023-02-05T06:01:16.055Z,87.45
2023-02-05T06:03:43.383Z,87.11
2023-02-05T06:06:12.648Z,87.51
2023-02-05T06:08:40.330Z,87.42
2023-02-05T06:11:07.595Z,86.87
2023-02-05T06:13:35.949Z,85.84
2023-02-05T06:16:03.751Z,85.50
2023-02-05T06:18:32.551Z,85.82
2023-02-05T06:21:02.459Z,85.96
2023-02-05T06:23:29.922Z,85.70
2023-02-05T06:25:57.432Z,85.54
2023-02-05T06:28:25.091Z,86.17
2023-02-05T06:30:52.725Z,86.97
2023-02-05T06:33:19.966Z,87.03
2023-02-05T06:35:48.777Z,86.65
2023-02-05T06:38:16.124Z,86.81
2023-02-05T06:40:43.358Z,86.71
2023-02-05T06:43:10.485Z,87.11
2023-02-05T06:45:37.511Z,87.48
2023-02-05T06:48:05.320Z,87.92
2023-02-05T06:50:34.122Z,88.24
2023-02-05T06:53:03.487Z,88.77
2023-02-05T06:55:30.702Z,88.57
2023-02-05T06:57:58.005Z,88.30
2023-02-05T07:00:25.835Z,88.29
2023-02-05T07:02:53.260Z,87.56
2023-02-05T07:05:20.848Z,86.90
2023-02-05T07:07:50.005Z,87.53
2023-02-05T07:10:18.808Z,88.26
2023-02-05T07:12:46.089Z,88.59
2023-02-05T07:15:13.386Z,88.84
2023-02-05T07:17:40.828Z,88.26
2023-02-05T07:20:09.422Z,87.34
2023-02-05T07:22:37.073Z,87.59
2023-02-05T07:25:04.953Z,87.96
2023-02-05T07:27:33.649Z,88.17
2023-02-05T07:30:01.069Z,88.50
2023-02-05T07:32:28.183Z,88.42
2023-02-05T07:34:55.421Z,88.19
2023-02-05T07:37:22.791Z,88.03
2023-02-05T07:39:50.274Z,87.95
2023-02-05T07:42:17.894Z,87.83
2023-02-05T07:44:46.882Z,87.84
2023-02-05T07:47:14.475Z,87.81
2023-02-05T07:49:41.660Z,87.90
2023-02-05T07:52:09.077Z,87.81
2023-02-05T07:54:36.377Z,87.37
2023-02-05T07:57:05.346Z,87.77
2023-02-05T07:59:34.292Z,88.36
2023-02-05T08:02:03.561Z,88.93
2023-02-05T08:04:31.309Z,89.40
2023-02-05T08:06:58.939Z,89.16
2023-02-05T08:09:26.235Z,88.21
2023-02-05T08:11:53.456Z,88.47
2023-02-05T08:14:20.691Z,88.35
2023-02-05T08:16:47.910Z,88.22
2023-02-05T08:19:17.549Z,88.39
2023-02-05T08:21:45.110Z,89.03
2023-02-05T08:24:12.383Z,90.39
2023-02-05T08:26:39.677Z,91.03
2023-02-05T08:29:07.645Z,91.50
2023-02-05T08:31:35.687Z,90.20
2023-02-05T08:34:03.613Z,87.99
2023-02-05T08:36:32.536Z,88.75
2023-02-05T08:39:00.119Z,89.60
2023-02-05T08:41:27.569Z,89.33
2023-02-05T08:43:55.232Z,89.38
2023-02-05T08:46:23.614Z,89.52
2023-02-05T08:48:51.010Z,89.61
2023-02-05T08:51:20.075Z,90.01
2023-02-05T08:53:48.798Z,90.40
2023-02-05T08:56:17.177Z,90.35
2023-02-05T08:58:45.627Z,89.43
2023-02-05T09:01:14.850Z,89.85
2023-02-05T09:03:42.029Z,90.79
2023-02-05T09:06:11.395Z,91.31
2023-02-05T09:08:39.107Z,89.54
2023-02-05T09:11:08.102Z,89.12
2023-02-05T09:13:36.297Z,90.13
2023-02-05T09:16:03.772Z,91.43
2023-02-05T09:18:30.976Z,91.96
2023-02-05T09:20:58.317Z,91.37
2023-02-05T09:23:25.862Z,90.26
2023-02-05T09:25:53.213Z,91.74
2023-02-05T09:28:22.264Z,92.51
2023-02-05T09:30:49.480Z,92.56
2023-02-05T09:33:16.722Z,90.91
2023-02-05T09:35:44.583Z,88.97
2023-02-05T09:38:14.475Z,90.62
2023-02-05T09:40:55.966Z,91.80
2023-02-05T09:43:37.337Z,92.77
2023-02-05T09:46:12.619Z,93.55
2023-02-05T09:48:52.903Z,93.74
2023-02-05T09:51:34.739Z,94.10
2023-02-05T09:54:12.221Z,94.47
2023-02-05T09:56:42.281Z,95.08
2023-02-05T09:59:16.288Z,94.36
2023-02-05T10:01:49.172Z,94.56
2023-02-05T10:04:16.782Z,94.73
2023-02-05T10:07:13.902Z,94.45
2023-02-05T10:10:06.118Z,95.56
2023-02-05T10:13:00.085Z,95.93
2023-02-05T10:15:44.479Z,96.01
2023-02-05T10:18:23.065Z,93.63
2023-02-05T10:21:01.540Z,89.28
2023-02-05T10:24:02.058Z,91.14
2023-02-05T10:26:36.065Z,93.18
2023-02-05T10:29:16.764Z,93.96
2023-02-05T10:31:55.527Z,95.60
2023-02-05T10:34:34.021Z,96.37
2023-02-05T10:39:33.153Z,92.08
2023-02-05T10:42:06.619Z,90.11
2023-02-05T10:44:38.849Z,92.36
2023-02-05T10:47:14.290Z,95.10
2023-02-05T10:49:48.261Z,96.20
2023-02-05T10:52:16.988Z,97.47
2023-02-05T10:54:46.751Z,96.40
2023-02-05T10:57:17.048Z,96.76
2023-02-05T10:59:52.757Z,96.14
2023-02-05T11:02:22.779Z,92.92
2023-02-05T11:04:56.472Z,94.12
2023-02-05T11:07:29.210Z,95.28
2023-02-05T11:09:58.607Z,95.04
2023-02-05T11:12:32.702Z,93.75
2023-02-05T11:15:02.882Z,93.03
2023-02-05T11:17:34.977Z,91.99
2023-02-05T11:20:07.013Z,91.90
2023-02-05T11:22:36.913Z,92.37
2023-02-05T11:25:15.516Z,82.95
2023-02-05T11:27:50.623Z,75.45
2023-02-05T11:30:52.313Z,77.79
2023-02-05T11:33:32.204Z,81.11
2023-02-05T11:36:02.373Z,79.29
2023-02-05T11:38:35.010Z,69.51
2023-02-05T11:41:07.350Z,67.28
2023-02-05T11:43:36.858Z,67.99
2023-02-05T11:46:08.022Z,69.56
2023-02-05T11:48:56.687Z,65.61
2023-02-05T11:51:44.061Z,68.66
2023-02-05T11:54:20.326Z,67.88
2023-02-05T11:57:04.953Z,65.60
2023-02-05T11:59:35.440Z,61.94
2023-02-05T12:02:35.966Z,64.88
2023-02-05T12:05:19.226Z,65.30
2023-02-05T12:07:50.939Z,62.87
2023-02-05T12:10:21.935Z,59.09
2023-02-05T12:13:02.576Z,60.51
2023-02-05T12:15:37.310Z,58.81
2023-02-05T12:18:19.414Z,58.12
2023-02-05T12:20:58.642Z,57.52
2023-02-05T12:23:38.058Z,59.15
2023-02-05T12:26:25.667Z,57.80
2023-02-05T12:29:07.935Z,58.83
2023-02-05T12:31:50.954Z,57.38
2023-02-05T12:34:28.276Z,55.17
2023-02-05T12:37:18.839Z,53.67
2023-02-05T12:39:47.930Z,51.13
2023-02-05T12:42:29.616Z,51.84
2023-02-05T12:45:15.941Z,52.73
2023-02-05T12:47:56.962Z,52.68
2023-02-05T12:50:53.572Z,49.29
2023-02-05T12:53:40.613Z,49.02
2023-02-05T12:56:26.053Z,50.35
2023-02-05T12:58:58.792Z,47.90
2023-02-05T13:01:36.196Z,46.97
2023-02-05T13:04:05.084Z,48.71
2023-02-05T13:06:37.884Z,49.80
2023-02-05T13:09:14.402Z,48.30
2023-02-05T13:11:48.034Z,45.02
2023-02-05T13:14:21.354Z,46.71
2023-02-05T13:16:52.801Z,47.72
2023-02-05T13:19:27.092Z,44.18
2023-02-05T13:21:56.600Z,43.95
2023-02-05T13:24:29.957Z,42.33
2023-02-05T13:26:58.153Z,40.77
2023-02-05T13:29:30.234Z,38.62
2023-02-05T13:32:14.714Z,40.20
2023-02-05T13:34:43.262Z,41.01
2023-02-05T13:37:27.244Z,42.55
2023-02-05T13:40:22.065Z,42.70
2023-02-05T13:43:18.017Z,42.92
2023-02-05T13:46:19.057Z,43.79
2023-02-05T13:49:07.416Z,45.65
2023-02-05T13:52:04.377Z,44.59
2023-02-05T13:55:00.581Z,45.61
2023-02-05T13:58:05.791Z,42.89
2023-02-05T14:00:34.476Z,43.68
2023-02-05T14:03:03.154Z,38.51
2023-02-05T14:05:32.929Z,37.20
2023-02-05T14:08:00.869Z,37.01
2023-02-05T14:10:30.874Z,36.10
2023-02-05T14:13:18.132Z,35.62
2023-02-05T14:15:45.425Z,35.92
2023-02-05T14:18:34.029Z,34.69
2023-02-05T14:21:01.314Z,34.80
2023-02-05T14:23:57.308Z,35.07
2023-02-05T14:26:46.426Z,34.42
2023-02-05T14:29:43.196Z,35.12
2023-02-05T14:32:11.983Z,33.77
2023-02-05T14:34:48.452Z,33.82
2023-02-05T14:37:31.227Z,33.55
2023-02-05T14:40:00.755Z,34.07
2023-02-05T14:42:29.218Z,37.45
2023-02-05T14:45:00.705Z,40.81
2023-02-05T14:47:30.817Z,41.38
2023-02-05T14:50:06.031Z,41.31
2023-02-05T14:52:37.130Z,42.07
2023-02-05T14:55:08.657Z,40.86
2023-02-05T14:57:45.751Z,40.08
2023-02-05T15:00:27.565Z,38.95
2023-02-05T15:03:26.697Z,38.58
2023-02-05T15:05:59.525Z,40.69
2023-02-05T15:08:42.769Z,40.45
2023-02-05T15:11:17.245Z,41.76
2023-02-05T15:14:25.974Z,43.18
2023-02-05T15:17:26.525Z,44.13
2023-02-05T15:20:02.748Z,45.05
2023-02-05T15:22:35.959Z,45.50
2023-02-05T15:25:09.199Z,45.42
2023-02-05T15:27:43.163Z,44.82
2023-02-05T15:30:18.305Z,45.01
2023-02-05T15:32:52.106Z,44.31
2023-02-05T15:35:24.816Z,44.14
2023-02-05T15:37:55.393Z,44.04
2023-02-05T15:40:25.534Z,44.50
2023-02-05T15:42:57.864Z,44.83
2023-02-05T15:45:27.563Z,45.18
2023-02-05T15:48:00.497Z,45.88
2023-02-05T15:50:30.659Z,45.64
2023-02-05T15:52:58.756Z,45.27
2023-02-05T15:55:26.914Z,45.86
2023-02-05T15:58:00.136Z,45.91
2023-02-05T16:00:30.789Z,46.05
2023-02-05T16:03:00.392Z,46.32
2023-02-05T16:05:32.412Z,46.74
2023-02-05T16:07:59.628Z,47.08
2023-02-05T16:10:28.527Z,47.47
2023-02-05T16:13:00.468Z,48.06
2023-02-05T16:15:33.182Z,48.37
2023-02-05T16:18:03.951Z,48.67
2023-02-05T16:20:37.389Z,49.16
2023-02-05T16:23:09.204Z,49.31
2023-02-05T16:25:44.268Z,49.28
2023-02-05T16:28:19.379Z,49.43
2023-02-05T16:30:48.605Z,49.65
2023-02-05T16:33:27.573Z,50.01
2023-02-05T16:36:00.108Z,49.75
2023-02-05T16:38:27.859Z,50.41
2023-02-05T16:40:57.440Z,51.23
2023-02-05T16:43:31.666Z,51.79
2023-02-05T16:46:23.765Z,52.34
2023-02-05T16:48:53.773Z,52.71
2023-02-05T16:51:53.824Z,53.34
2023-02-05T16:54:30.915Z,53.87
2023-02-05T16:57:07.487Z,53.79
2023-02-05T16:59:39.872Z,53.50
2023-02-05T17:02:23.207Z,53.90
2023-02-05T17:04:53.457Z,54.09
2023-02-05T17:07:23.455Z,54.01
2023-02-05T17:09:51.648Z,54.02
2023-02-05T17:12:41.161Z,54.15
2023-02-05T17:15:37.065Z,54.02
2023-02-05T17:18:21.032Z,54.06
2023-02-05T17:20:48.558Z,53.97
2023-02-05T17:23:18.024Z,54.37
2023-02-05T17:25:52.697Z,54.62
2023-02-05T17:28:22.302Z,55.19
2023-02-05T17:30:49.998Z,55.48
2023-02-05T17:33:19.846Z,55.82
2023-02-05T17:35:47.323Z,56.05
2023-02-05T17:38:17.525Z,56.22
2023-02-05T17:40:45.393Z,56.40
2023-02-05T17:43:12.770Z,56.72
2023-02-05T17:45:42.182Z,56.80
2023-02-05T17:48:09.667Z,57.07
2023-02-05T17:50:37.532Z,57.19
2023-02-05T17:53:05.158Z,57.82
2023-02-05T17:55:33.966Z,58.29
2023-02-05T17:58:01.160Z,58.83
2023-02-05T18:00:29.604Z,59.63
2023-02-05T18:02:57.305Z,59.87
2023-02-05T18:05:24.706Z,59.76
2023-02-05T18:07:54.453Z,59.92
2023-02-05T18:10:24.690Z,60.27
2023-02-05T18:12:54.294Z,61.09
2023-02-05T18:15:21.429Z,61.24
2023-02-05T18:17:49.059Z,61.71
2023-02-05T18:20:17.720Z,61.93
2023-02-05T18:22:45.597Z,62.77
2023-02-05T18:25:13.530Z,63.13
2023-02-05T18:27:40.884Z,63.53
2023-02-05T18:30:11.316Z,63.97
2023-02-05T18:32:39.017Z,64.38
2023-02-05T18:35:07.209Z,64.74
2023-02-05T18:37:36.974Z,64.22
2023-02-05T18:40:05.354Z,64.11
2023-02-05T18:42:33.922Z,63.12
2023-02-05T18:45:01.580Z,63.07
2023-02-05T18:47:30.438Z,63.13
2023-02-05T18:49:57.608Z,63.22
2023-02-05T18:52:24.975Z,63.55
2023-02-05T18:54:52.377Z,64.53
2023-02-05T18:57:19.774Z,65.35
2023-02-05T18:59:47.055Z,66.34
2023-02-05T19:02:14.434Z,66.92
2023-02-05T19:04:43.719Z,66.80
2023-02-05T19:07:10.960Z,66.73
2023-02-05T19:09:38.304Z,67.41
2023-02-05T19:12:06.545Z,68.63
2023-02-05T19:14:33.940Z,69.87
2023-02-05T19:17:01.324Z,70.21
2023-02-05T19:19:28.588Z,71.07
2023-02-05T19:21:58.224Z,71.60
2023-02-05T19:24:26.143Z,71.58
2023-02-05T19:26:55.856Z,71.41
2023-02-05T19:29:23.450Z,71.53
2023-02-05T19:31:50.761Z,71.31
2023-02-05T19:34:17.989Z,71.45
2023-02-05T19:36:46.306Z,71.82
2023-02-05T19:39:15.469Z,72.03
2023-02-05T19:41:42.945Z,71.36
2023-02-05T19:44:10.697Z,70.75
2023-02-05T19:46:39.930Z,70.78
2023-02-05T19:49:11.730Z,70.73
2023-02-05T19:51:39.030Z,71.12
2023-02-05T19:54:06.493Z,71.66
2023-02-05T19:56:35.470Z,72.57
2023-02-05T19:59:02.738Z,73.22
2023-02-05T20:01:32.422Z,73.27
2023-02-05T20:04:01.788Z,73.62
2023-02-05T20:06:29.951Z,73.68
2023-02-05T20:08:57.438Z,74.04
2023-02-05T20:11:24.641Z,73.86
2023-02-05T20:13:53.313Z,73.78
2023-02-05T20:16:22.744Z,73.46
2023-02-05T20:18:54.238Z,73.07
2023-02-05T20:21:21.882Z,72.75
2023-02-05T20:23:50.446Z,72.94
2023-02-05T20:26:17.799Z,72.77
2023-02-05T20:28:47.071Z,73.11
2023-02-05T20:31:16.089Z,73.27
2023-02-05T20:33:43.369Z,72.56
2023-02-05T20:36:12.429Z,72.29
2023-02-05T20:38:40.450Z,72.40
2023-02-05T20:41:12.199Z,72.70
2023-02-05T20:43:39.550Z,73.16
2023-02-05T20:46:08.094Z,73.42
2023-02-05T20:48:37.172Z,73.53
2023-02-05T20:51:09.469Z,74.05
2023-02-05T20:53:36.787Z,74.12
2023-02-05T20:56:06.378Z,74.09
2023-02-05T20:58:34.992Z,73.89
2023-02-05T21:01:07.124Z,73.74
2023-02-05T21:03:37.565Z,73.64
2023-02-05T21:06:05.704Z,73.57
2023-02-05T21:08:33.382Z,73.49
2023-02-05T21:11:01.360Z,73.36
2023-02-05T21:13:28.598Z,73.51
2023-02-05T21:15:57.249Z,73.51
2023-02-05T21:18:26.715Z,73.45
2023-02-05T21:20:55.948Z,73.31
2023-02-05T21:23:23.343Z,73.29
2023-02-05T21:25:51.079Z,73.10
2023-02-05T21:28:19.040Z,72.71
2023-02-05T21:30:46.403Z,72.29
2023-02-05T21:33:14.133Z,71.56
2023-02-05T21:35:41.353Z,70.69
2023-02-05T21:38:10.309Z,70.05
2023-02-05T21:40:37.988Z,69.72
2023-02-05T21:43:05.175Z,69.43
2023-02-05T21:45:32.488Z,68.85
2023-02-05T21:47:59.901Z,69.09
2023-02-05T21:50:27.324Z,68.90
2023-02-05T21:52:55.176Z,68.83
2023-02-05T21:55:24.700Z,69.38
2023-02-05T21:57:52.162Z,70.19
2023-02-05T22:00:19.669Z,71.10
2023-02-05T22:02:47.156Z,71.85
2023-02-05T22:05:14.674Z,72.61
2023-02-05T22:07:42.079Z,73.03
2023-02-05T22:10:09.896Z,72.96
2023-02-05T22:12:38.852Z,73.79
2023-02-05T22:15:06.497Z,73.62
2023-02-05T22:17:34.289Z,73.27
2023-02-05T22:20:01.907Z,73.62
2023-02-05T22:22:29.103Z,72.85
2023-02-05T22:24:57.530Z,72.88
2023-02-05T22:27:24.877Z,72.29
2023-02-05T22:29:53.696Z,71.99
2023-02-05T22:32:21.064Z,71.79
2023-02-05T22:34:48.549Z,72.14
2023-02-05T22:37:15.671Z,73.41
2023-02-05T22:39:43.257Z,74.63
2023-02-05T22:42:11.296Z,75.73
2023-02-05T22:44:38.531Z,76.21
2023-02-05T22:47:07.426Z,76.67
2023-02-05T22:49:34.602Z,77.48
2023-02-05T22:52:01.803Z,78.16
2023-02-05T22:54:30.448Z,78.91
2023-02-05T22:56:57.703Z,79.06
2023-02-05T22:59:25.618Z,78.71
2023-02-05T23:01:53.106Z,78.24
2023-02-05T23:04:22.269Z,77.89
2023-02-05T23:06:49.458Z,77.30
2023-02-05T23:09:19.521Z,75.76
2023-02-05T23:11:47.038Z,74.29
2023-02-05T23:14:16.285Z,73.88
2023-02-05T23:16:46.163Z,73.59
2023-02-05T23:19:18.296Z,73.02
2023-02-05T23:21:48.097Z,73.32
2023-02-05T23:24:16.238Z,73.38
2023-02-05T23:26:45.482Z,73.72
2023-02-05T23:29:15.693Z,74.12
2023-02-05T23:31:43.572Z,74.50
2023-02-05T23:34:11.107Z,74.99
2023-02-05T23:36:38.864Z,75.66
2023-02-05T23:39:07.609Z,75.37
2023-02-05T23:41:35.010Z,74.91
2023-02-05T23:44:03.888Z,74.71
2023-02-05T23:46:31.765Z,74.61
2023-02-05T23:48:59.199Z,74.59
2023-02-05T23:51:26.548Z,74.56
2023-02-05T23:53:54.153Z,75.87
2023-02-05T23:56:22.852Z,77.34
2023-02-05T23:58:50.360Z,77.92
